createdAt,value
2019-03-27T00:00:59.793Z,22.43
2019-03-27T00:03:30.101Z,19.67
2019-03-27T00:06:00.660Z,21.47
2019-03-27T00:08:30.974Z,23.03
2019-03-27T00:11:01.263Z,15.60
2019-03-27T00:13:31.509Z,17.23
2019-03-27T00:16:01.833Z,22.13
2019-03-27T00:18:32.175Z,18.57
2019-03-27T00:21:02.605Z,22.53
2019-03-27T00:23:32.915Z,20.53
2019-03-27T00:26:03.197Z,26.40
2019-03-27T00:28:33.488Z,21.80
2019-03-27T00:31:03.887Z,24.10
2019-03-27T00:33:34.209Z,20.63
2019-03-27T00:36:04.482Z,17.13
2019-03-27T00:38:34.879Z,20.67
2019-03-27T00:41:05.224Z,18.77
2019-03-27T00:43:35.511Z,18.43
2019-03-27T00:46:05.865Z,16.73
2019-03-27T00:48:36.147Z,18.90
2019-03-27T00:51:06.721Z,23.70
2019-03-27T00:53:37.008Z,31.07
2019-03-27T00:56:07.347Z,20.70
2019-03-27T00:58:37.671Z,21.50
2019-03-27T01:01:12.005Z,24.37
2019-03-27T01:03:42.321Z,22.37
2019-03-27T01:06:12.861Z,29.00
2019-03-27T01:08:43.163Z,23.47
2019-03-27T01:11:13.617Z,23.90
2019-03-27T01:13:43.916Z,22.13
2019-03-27T01:16:14.183Z,22.53
2019-03-27T01:18:44.577Z,19.20
2019-03-27T01:21:15.012Z,21.70
2019-03-27T01:23:45.315Z,21.63
2019-03-27T01:26:15.679Z,22.03
2019-03-27T01:28:45.970Z,21.53
2019-03-27T01:31:16.309Z,20.13
2019-03-27T01:33:46.683Z,21.63
2019-03-27T01:36:16.952Z,23.23
2019-03-27T01:38:47.301Z,20.07
2019-03-27T01:41:17.604Z,22.00
2019-03-27T01:43:47.926Z,24.63
2019-03-27T01:46:18.245Z,19.63
2019-03-27T01:48:48.582Z,24.97
2019-03-27T01:51:19.092Z,23.17
2019-03-27T01:53:49.359Z,21.60
2019-03-27T01:56:19.638Z,22.97
2019-03-27T01:58:50.000Z,25.17
2019-03-27T02:01:20.301Z,19.53
2019-03-27T02:03:50.646Z,23.93
2019-03-27T02:06:20.944Z,23.33
2019-03-27T02:08:51.301Z,24.13
2019-03-27T02:11:21.608Z,25.97
2019-03-27T02:13:51.950Z,18.13
2019-03-27T02:16:22.214Z,24.93
2019-03-27T02:18:52.508Z,21.60
2019-03-27T02:21:23.514Z,21.33
2019-03-27T02:23:53.848Z,26.30
2019-03-27T02:26:24.188Z,22.30
2019-03-27T02:28:54.498Z,23.97
2019-03-27T02:31:24.840Z,29.23
2019-03-27T02:33:55.162Z,23.80
2019-03-27T02:36:25.476Z,19.70
2019-03-27T02:38:55.758Z,28.07
2019-03-27T02:41:26.134Z,31.00
2019-03-27T02:43:56.398Z,23.20
2019-03-27T02:46:26.694Z,22.43
2019-03-27T02:48:57.022Z,25.47
2019-03-27T02:51:27.303Z,21.67
2019-03-27T02:53:57.645Z,20.60
2019-03-27T02:56:27.909Z,23.83
2019-03-27T02:58:58.315Z,20.97
2019-03-27T03:01:28.628Z,22.20
2019-03-27T03:03:58.908Z,24.90
2019-03-27T03:06:29.261Z,27.37
2019-03-27T03:08:59.615Z,26.43
2019-03-27T03:11:30.121Z,27.03
2019-03-27T03:14:00.403Z,26.57
2019-03-27T03:16:41.857Z,22.63
2019-03-27T03:19:01.123Z,21.50
2019-03-27T03:21:31.421Z,22.30
2019-03-27T03:24:01.770Z,27.30
2019-03-27T03:26:32.028Z,22.57
2019-03-27T03:29:02.413Z,26.70
2019-03-27T03:31:32.793Z,29.33
2019-03-27T03:34:03.080Z,24.10
2019-03-27T03:36:33.320Z,21.63
2019-03-27T03:39:04.268Z,24.87
2019-03-27T03:41:34.727Z,22.40
2019-03-27T03:44:04.983Z,29.80
2019-03-27T03:46:35.282Z,26.83
2019-03-27T03:49:05.616Z,35.53
2019-03-27T03:51:35.993Z,23.07
2019-03-27T03:54:06.376Z,23.40
2019-03-27T03:56:36.896Z,23.33
2019-03-27T03:59:07.236Z,30.23
2019-03-27T04:01:37.653Z,23.67
2019-03-27T04:04:07.969Z,26.43
2019-03-27T04:06:38.282Z,25.63
2019-03-27T04:09:08.859Z,27.13
2019-03-27T04:11:39.091Z,29.13
2019-03-27T04:14:09.400Z,30.93
2019-03-27T04:16:39.709Z,32.83
2019-03-27T04:19:10.050Z,34.43
2019-03-27T04:21:40.439Z,31.77
2019-03-27T04:24:10.693Z,32.40
2019-03-27T04:26:41.034Z,34.33
2019-03-27T04:29:11.440Z,22.40
2019-03-27T04:31:41.684Z,36.87
2019-03-27T04:34:11.975Z,33.07
2019-03-27T04:36:42.309Z,28.87
2019-03-27T04:39:12.648Z,35.83
2019-03-27T04:41:43.001Z,50.70
2019-03-27T04:44:13.367Z,34.67
2019-03-27T04:46:43.817Z,36.50
2019-03-27T04:49:14.182Z,40.23
2019-03-27T04:51:44.498Z,31.20
2019-03-27T04:54:14.895Z,41.73
2019-03-27T04:56:45.214Z,49.87
2019-03-27T04:59:15.480Z,32.17
2019-03-27T05:01:45.782Z,35.50
2019-03-27T05:04:16.053Z,46.37
2019-03-27T05:06:46.354Z,46.17
2019-03-27T05:09:16.723Z,42.00
2019-03-27T05:11:47.029Z,39.93
2019-03-27T05:14:17.299Z,37.83
2019-03-27T05:16:47.585Z,49.03
2019-03-27T05:19:17.878Z,37.67
2019-03-27T05:21:48.259Z,47.30
2019-03-27T05:24:18.551Z,46.43
2019-03-27T05:26:48.828Z,46.20
2019-03-27T05:29:19.122Z,38.50
2019-03-27T05:31:49.452Z,44.30
2019-03-27T05:34:19.762Z,43.20
2019-03-27T05:36:50.068Z,38.70
2019-03-27T05:39:20.381Z,42.87
2019-03-27T05:41:50.665Z,40.27
2019-03-27T05:44:20.994Z,46.20
2019-03-27T05:46:51.323Z,49.07
2019-03-27T05:49:21.615Z,47.93
2019-03-27T05:51:51.960Z,47.20
2019-03-27T05:54:22.264Z,39.27
2019-03-27T05:56:52.608Z,50.13
2019-03-27T05:59:23.001Z,35.40
2019-03-27T06:01:53.365Z,34.93
2019-03-27T06:04:23.669Z,42.23
2019-03-27T06:06:54.000Z,43.37
2019-03-27T06:09:24.278Z,44.27
2019-03-27T06:11:54.654Z,42.27
2019-03-27T06:14:24.973Z,44.53
2019-03-27T06:16:55.278Z,43.20
2019-03-27T06:19:25.662Z,39.90
2019-03-27T06:21:55.905Z,40.10
2019-03-27T06:24:26.190Z,44.50
2019-03-27T06:26:56.511Z,36.00
2019-03-27T06:29:26.813Z,39.67
2019-03-27T06:31:57.163Z,48.20
2019-03-27T06:34:27.478Z,41.17
2019-03-27T06:36:57.781Z,39.67
2019-03-27T06:39:30.399Z,33.10
2019-03-27T06:42:00.620Z,37.07
2019-03-27T06:44:30.910Z,33.27
2019-03-27T06:47:01.262Z,31.23
2019-03-27T06:49:31.576Z,29.23
2019-03-27T06:52:01.885Z,27.60
2019-03-27T06:54:32.235Z,27.20
2019-03-27T06:57:02.662Z,29.57
2019-03-27T06:59:33.006Z,28.80
2019-03-27T07:02:03.400Z,31.30
2019-03-27T07:04:33.765Z,27.37
2019-03-27T07:07:04.146Z,33.73
2019-03-27T07:09:34.490Z,32.07
2019-03-27T07:12:04.801Z,40.90
2019-03-27T07:14:35.352Z,27.10
2019-03-27T07:17:05.667Z,23.97
2019-03-27T07:19:35.999Z,28.33
2019-03-27T07:22:06.299Z,27.83
2019-03-27T07:24:36.645Z,27.37
2019-03-27T07:27:07.057Z,22.70
2019-03-27T07:29:37.409Z,29.27
2019-03-27T07:32:07.705Z,27.00
2019-03-27T07:34:38.039Z,26.83
2019-03-27T07:37:08.355Z,23.80
2019-03-27T07:39:38.655Z,29.20
2019-03-27T07:42:09.039Z,24.27
2019-03-27T07:44:39.462Z,20.23
2019-03-27T07:47:09.881Z,26.87
2019-03-27T07:49:40.168Z,22.20
2019-03-27T07:52:10.482Z,25.60
2019-03-27T07:54:40.901Z,23.07
2019-03-27T07:57:11.290Z,23.63
2019-03-27T07:59:41.615Z,24.43
2019-03-27T08:02:11.972Z,28.80
2019-03-27T08:04:42.320Z,27.10
2019-03-27T08:07:25.946Z,24.67
2019-03-27T08:09:42.941Z,23.17
2019-03-27T08:12:13.297Z,21.90
2019-03-27T08:14:43.590Z,24.43
2019-03-27T08:17:13.977Z,22.17
2019-03-27T08:19:44.316Z,24.90
2019-03-27T08:22:14.591Z,21.47
2019-03-27T08:24:44.925Z,26.20
2019-03-27T08:27:15.280Z,27.40
2019-03-27T08:29:45.614Z,25.47
2019-03-27T08:32:16.016Z,20.87
2019-03-27T08:34:46.325Z,20.97
2019-03-27T08:37:16.666Z,19.27
2019-03-27T08:39:46.950Z,22.63
2019-03-27T08:42:17.418Z,21.90
2019-03-27T08:44:47.966Z,22.80
2019-03-27T08:47:18.271Z,24.67
2019-03-27T08:49:48.563Z,22.40
2019-03-27T08:52:18.833Z,22.13
2019-03-27T08:54:49.092Z,19.70
2019-03-27T08:57:19.523Z,19.77
2019-03-27T08:59:49.928Z,17.20
2019-03-27T09:02:20.219Z,18.93
2019-03-27T09:04:50.520Z,21.13
2019-03-27T09:07:20.790Z,17.97
2019-03-27T09:09:51.072Z,19.00
2019-03-27T09:12:21.342Z,18.53
2019-03-27T09:14:51.598Z,18.83
2019-03-27T09:17:22.097Z,20.67
2019-03-27T09:19:52.360Z,17.67
2019-03-27T09:22:22.646Z,18.33
2019-03-27T09:24:52.920Z,17.77
2019-03-27T09:27:23.245Z,14.77
2019-03-27T09:29:53.591Z,15.47
2019-03-27T09:32:23.950Z,13.40
2019-03-27T09:34:54.244Z,12.70
2019-03-27T09:37:24.694Z,15.33
2019-03-27T09:39:55.000Z,21.07
2019-03-27T09:42:25.346Z,17.87
2019-03-27T09:44:55.607Z,13.93
2019-03-27T09:47:25.934Z,13.83
2019-03-27T09:49:56.299Z,13.80
2019-03-27T09:52:26.636Z,15.60
2019-03-27T09:54:56.912Z,12.70
2019-03-27T09:57:27.316Z,15.00
2019-03-27T09:59:57.693Z,12.00
2019-03-27T10:02:28.000Z,12.53
2019-03-27T10:04:58.347Z,12.10
2019-03-27T10:07:28.692Z,13.27
2019-03-27T10:09:58.972Z,10.73
2019-03-27T10:12:29.357Z,9.80
2019-03-27T10:14:59.634Z,12.00
2019-03-27T10:17:30.098Z,11.67
2019-03-27T10:20:03.711Z,13.50
2019-03-27T10:22:30.658Z,11.23
2019-03-27T10:25:00.950Z,12.23
2019-03-27T10:27:31.299Z,9.57
2019-03-27T10:30:01.587Z,13.37
2019-03-27T10:32:31.945Z,12.97
2019-03-27T10:35:02.257Z,10.77
2019-03-27T10:37:32.600Z,14.53
2019-03-27T10:40:02.904Z,16.73
2019-03-27T10:42:33.246Z,12.13
2019-03-27T10:45:03.540Z,15.13
2019-03-27T10:47:33.842Z,7.17
2019-03-27T10:50:16.930Z,13.30
2019-03-27T10:52:34.648Z,9.37
2019-03-27T10:55:05.092Z,14.60
2019-03-27T10:57:35.432Z,11.53
2019-03-27T11:00:06.372Z,9.47
2019-03-27T11:02:36.762Z,10.87
2019-03-27T11:05:07.218Z,11.07
2019-03-27T11:07:37.644Z,11.53
2019-03-27T11:10:07.899Z,12.33
2019-03-27T11:12:38.236Z,10.17
2019-03-27T11:15:08.573Z,9.77
2019-03-27T11:17:39.029Z,9.80
2019-03-27T11:20:09.387Z,10.73
2019-03-27T11:22:39.682Z,9.60
2019-03-27T11:25:09.969Z,9.70
2019-03-27T11:27:40.606Z,13.13
2019-03-27T11:30:11.232Z,12.37
2019-03-27T11:32:41.527Z,11.07
2019-03-27T11:35:11.790Z,14.07
2019-03-27T11:37:42.159Z,13.13
2019-03-27T11:40:12.409Z,9.37
2019-03-27T11:42:42.736Z,11.20
2019-03-27T11:45:13.020Z,12.30
2019-03-27T11:47:43.330Z,10.60
2019-03-27T11:50:13.741Z,10.27
2019-03-27T11:52:44.085Z,7.50
2019-03-27T11:55:14.397Z,11.77
2019-03-27T11:57:44.694Z,7.73
2019-03-27T12:00:15.050Z,6.33
2019-03-27T12:02:45.389Z,6.87
2019-03-27T12:05:15.711Z,9.33
2019-03-27T12:07:46.026Z,7.63
2019-03-27T12:10:16.304Z,7.00
2019-03-27T12:12:48.192Z,8.33
2019-03-27T12:15:16.905Z,8.10
2019-03-27T12:17:47.240Z,6.60
2019-03-27T12:20:17.552Z,8.83
2019-03-27T12:22:57.749Z,7.47
2019-03-27T12:25:18.192Z,8.33
2019-03-27T12:27:48.453Z,7.77
2019-03-27T12:30:18.790Z,7.57
2019-03-27T12:32:49.114Z,7.53
2019-03-27T12:35:19.621Z,7.10
2019-03-27T12:37:49.886Z,6.97
2019-03-27T12:40:20.285Z,5.57
2019-03-27T12:42:50.581Z,7.40
2019-03-27T12:45:21.136Z,9.83
2019-03-27T12:47:51.415Z,9.10
2019-03-27T12:50:21.768Z,6.80
2019-03-27T12:52:52.165Z,10.53
2019-03-27T12:55:22.491Z,6.67
2019-03-27T12:57:52.921Z,7.03
2019-03-27T13:00:23.197Z,9.23
2019-03-27T13:02:53.482Z,10.77
2019-03-27T13:05:23.814Z,6.60
2019-03-27T13:07:54.132Z,10.90
2019-03-27T13:10:24.448Z,12.37
2019-03-27T13:12:54.773Z,6.73
2019-03-27T13:15:25.031Z,7.53
2019-03-27T13:17:55.447Z,10.03
2019-03-27T13:20:25.727Z,7.97
2019-03-27T13:22:56.001Z,8.13
2019-03-27T13:25:26.431Z,8.70
2019-03-27T13:27:56.732Z,6.77
2019-03-27T13:30:26.999Z,6.17
2019-03-27T13:32:57.472Z,6.13
2019-03-27T13:35:27.824Z,4.67
2019-03-27T13:37:58.121Z,3.93
2019-03-27T13:40:28.474Z,7.10
2019-03-27T13:42:58.872Z,5.07
2019-03-27T13:45:29.224Z,4.97
2019-03-27T13:47:59.547Z,4.67
2019-03-27T13:50:29.891Z,8.07
2019-03-27T13:53:00.178Z,6.00
2019-03-27T13:55:30.528Z,7.33
2019-03-27T13:58:00.837Z,6.60
2019-03-27T14:00:31.179Z,7.47
2019-03-27T14:03:01.497Z,5.47
2019-03-27T14:05:31.762Z,5.90
2019-03-27T14:08:02.121Z,4.93
2019-03-27T14:10:32.441Z,5.70
2019-03-27T14:13:02.750Z,6.73
2019-03-27T14:15:33.120Z,5.30
2019-03-27T14:18:03.443Z,5.57
2019-03-27T14:20:33.771Z,7.13
2019-03-27T14:23:04.094Z,7.50
2019-03-27T14:25:34.421Z,5.77
2019-03-27T14:28:04.710Z,5.43
2019-03-27T14:30:49.921Z,5.70
2019-03-27T14:33:20.231Z,5.90
2019-03-27T14:35:50.675Z,5.60
2019-03-27T14:38:21.089Z,4.90
2019-03-27T14:40:51.414Z,5.30
2019-03-27T14:43:21.731Z,4.20
2019-03-27T14:45:52.328Z,4.10
2019-03-27T14:48:22.632Z,5.03
2019-03-27T14:50:53.115Z,6.80
2019-03-27T14:53:23.390Z,4.10
2019-03-27T14:55:53.720Z,4.07
2019-03-27T14:58:24.180Z,3.90
2019-03-27T15:00:54.494Z,4.53
2019-03-27T15:03:24.774Z,4.40
2019-03-27T15:05:55.064Z,6.33
2019-03-27T15:08:25.401Z,6.83
2019-03-27T15:10:55.756Z,2.60
2019-03-27T15:13:26.025Z,7.30
2019-03-27T15:15:56.366Z,6.10
2019-03-27T15:18:26.671Z,4.57
2019-03-27T15:20:57.002Z,5.43
2019-03-27T15:23:27.317Z,4.60
2019-03-27T15:25:57.680Z,6.70
2019-03-27T15:28:28.238Z,4.80
2019-03-27T15:30:58.539Z,6.20
2019-03-27T15:33:28.966Z,3.43
2019-03-27T15:35:59.436Z,4.80
2019-03-27T15:38:29.734Z,4.83
2019-03-27T15:41:00.062Z,4.37
2019-03-27T15:43:30.340Z,3.83
2019-03-27T15:46:00.675Z,4.37
2019-03-27T15:48:30.986Z,5.03
2019-03-27T15:51:01.257Z,5.67
2019-03-27T15:53:31.567Z,4.70
2019-03-27T15:56:01.859Z,2.33
2019-03-27T15:58:34.740Z,7.63
2019-03-27T16:01:02.492Z,2.67
2019-03-27T16:03:32.809Z,3.50
2019-03-27T16:06:03.074Z,5.30
2019-03-27T16:08:33.362Z,6.17
2019-03-27T16:11:03.759Z,8.50
2019-03-27T16:13:34.020Z,6.27
2019-03-27T16:16:04.404Z,8.97
2019-03-27T16:18:34.734Z,5.90
2019-03-27T16:21:05.104Z,11.40
2019-03-27T16:23:35.379Z,5.40
2019-03-27T16:26:05.733Z,6.47
2019-03-27T16:28:36.050Z,6.73
2019-03-27T16:31:06.314Z,7.83
2019-03-27T16:33:38.441Z,5.83
2019-03-27T16:36:10.732Z,6.10
2019-03-27T16:38:43.380Z,5.73
2019-03-27T16:41:13.658Z,5.13
2019-03-27T16:43:44.508Z,6.60
2019-03-27T16:46:14.474Z,6.40
2019-03-27T16:48:44.828Z,14.43
2019-03-27T16:51:15.251Z,8.20
2019-03-27T16:53:45.662Z,8.00
2019-03-27T16:56:16.038Z,9.70
2019-03-27T16:58:46.380Z,9.43
2019-03-27T17:01:16.644Z,8.93
2019-03-27T17:03:47.022Z,8.03
2019-03-27T17:06:17.309Z,9.67
2019-03-27T17:08:47.679Z,9.73
2019-03-27T17:11:17.955Z,7.63
2019-03-27T17:13:48.318Z,8.77
2019-03-27T17:16:18.586Z,11.63
2019-03-27T17:18:48.980Z,9.17
2019-03-27T17:21:19.364Z,10.10
2019-03-27T17:23:49.654Z,9.33
2019-03-27T17:26:19.926Z,8.70
2019-03-27T17:28:50.214Z,13.83
2019-03-27T17:31:20.460Z,10.60
2019-03-27T17:33:50.780Z,10.67
2019-03-27T17:36:21.052Z,11.17
2019-03-27T17:38:51.368Z,9.27
2019-03-27T17:41:21.710Z,8.37
2019-03-27T17:43:52.021Z,10.07
2019-03-27T17:46:22.288Z,7.60
2019-03-27T17:48:52.778Z,8.70
2019-03-27T17:51:23.170Z,9.23
2019-03-27T17:53:53.539Z,11.17
2019-03-27T17:56:23.828Z,8.73
2019-03-27T17:58:54.092Z,8.03
2019-03-27T18:01:24.451Z,8.23
2019-03-27T18:03:54.783Z,7.43
2019-03-27T18:06:25.122Z,12.17
2019-03-27T18:08:55.515Z,10.57
2019-03-27T18:11:25.824Z,9.17
2019-03-27T18:13:56.103Z,8.30
2019-03-27T18:16:26.610Z,9.43
2019-03-27T18:18:56.957Z,6.83
2019-03-27T18:21:27.273Z,9.00
2019-03-27T18:23:57.566Z,8.10
2019-03-27T18:26:27.944Z,13.93
2019-03-27T18:28:58.247Z,10.57
2019-03-27T18:31:28.587Z,11.10
2019-03-27T18:33:58.942Z,8.70
2019-03-27T18:36:29.231Z,8.27
2019-03-27T18:38:59.514Z,8.27
2019-03-27T18:41:29.840Z,9.00
2019-03-27T18:44:03.042Z,6.87
2019-03-27T18:46:30.455Z,5.63
2019-03-27T18:49:00.804Z,6.83
2019-03-27T18:51:31.112Z,8.13
2019-03-27T18:54:01.375Z,12.13
2019-03-27T18:56:31.784Z,8.50
2019-03-27T18:59:02.189Z,7.90
2019-03-27T19:01:32.392Z,10.13
2019-03-27T19:04:02.816Z,9.57
2019-03-27T19:06:33.100Z,11.80
2019-03-27T19:09:03.703Z,9.23
2019-03-27T19:11:33.979Z,7.40
2019-03-27T19:14:04.408Z,7.70
2019-03-27T19:16:35.792Z,7.67
2019-03-27T19:19:06.054Z,11.63
2019-03-27T19:21:36.439Z,11.67
2019-03-27T19:24:14.781Z,10.53
2019-03-27T19:26:37.081Z,10.93
2019-03-27T19:29:07.415Z,8.87
2019-03-27T19:31:41.001Z,7.73
2019-03-27T19:34:11.268Z,10.60
2019-03-27T19:36:41.611Z,9.90
2019-03-27T19:39:12.106Z,13.20
2019-03-27T19:41:42.512Z,10.07
2019-03-27T19:44:12.817Z,11.20
2019-03-27T19:46:43.371Z,11.13
2019-03-27T19:49:13.819Z,7.83
2019-03-27T19:51:44.118Z,8.43
2019-03-27T19:54:26.484Z,9.17
2019-03-27T19:56:44.829Z,11.57
2019-03-27T19:59:15.270Z,10.43
2019-03-27T20:01:45.645Z,11.10
2019-03-27T20:04:15.904Z,12.47
2019-03-27T20:06:46.385Z,12.97
2019-03-27T20:09:16.708Z,15.30
2019-03-27T20:11:47.145Z,13.80
2019-03-27T20:14:17.500Z,12.63
2019-03-27T20:16:47.836Z,13.93
2019-03-27T20:19:18.195Z,12.13
2019-03-27T20:21:48.516Z,12.30
2019-03-27T20:24:18.959Z,12.33
2019-03-27T20:26:49.810Z,15.20
2019-03-27T20:29:20.217Z,17.17
2019-03-27T20:31:50.599Z,17.30
2019-03-27T20:34:20.950Z,18.83
2019-03-27T20:36:51.308Z,17.57
2019-03-27T20:39:42.668Z,17.87
2019-03-27T20:42:10.804Z,19.43
2019-03-27T20:44:41.082Z,15.83
2019-03-27T20:47:11.400Z,18.10
2019-03-27T20:49:41.804Z,22.13
2019-03-27T20:52:12.119Z,21.17
2019-03-27T20:54:54.235Z,20.77
2019-03-27T20:57:12.732Z,20.07
2019-03-27T20:59:43.108Z,20.73
2019-03-27T21:02:15.908Z,23.37
2019-03-27T21:04:46.162Z,23.33
2019-03-27T21:07:16.469Z,26.23
2019-03-27T21:09:46.739Z,21.97
2019-03-27T21:12:17.070Z,25.47
2019-03-27T21:14:47.375Z,27.60
2019-03-27T21:17:17.647Z,25.30
2019-03-27T21:19:48.025Z,22.67
2019-03-27T21:22:18.334Z,23.27
2019-03-27T21:24:48.775Z,16.67
2019-03-27T21:27:19.104Z,18.97
2019-03-27T21:29:49.406Z,17.80
2019-03-27T21:32:19.783Z,18.63
2019-03-27T21:34:50.123Z,15.97
2019-03-27T21:37:20.461Z,20.10
2019-03-27T21:39:50.837Z,15.40
2019-03-27T21:42:21.177Z,18.73
2019-03-27T21:44:51.488Z,17.13
2019-03-27T21:47:21.796Z,16.57
2019-03-27T21:49:52.219Z,15.07
2019-03-27T21:52:22.533Z,22.17
2019-03-27T21:54:53.063Z,20.60
2019-03-27T21:57:23.381Z,19.20
2019-03-27T21:59:53.722Z,20.50
2019-03-27T22:02:24.007Z,19.90
2019-03-27T22:04:54.323Z,24.97
2019-03-27T22:07:24.612Z,23.33
2019-03-27T22:09:55.073Z,21.33
2019-03-27T22:12:25.479Z,22.63
2019-03-27T22:14:55.883Z,23.70
2019-03-27T22:17:26.142Z,25.70
2019-03-27T22:19:56.498Z,29.27
2019-03-27T22:22:26.816Z,23.83
2019-03-27T22:24:57.126Z,23.13
2019-03-27T22:27:27.419Z,25.87
2019-03-27T22:29:57.763Z,27.47
2019-03-27T22:32:28.134Z,25.30
2019-03-27T22:34:58.440Z,24.57
2019-03-27T22:37:28.742Z,29.97
2019-03-27T22:39:59.143Z,22.63
2019-03-27T22:42:29.438Z,24.53
2019-03-27T22:44:59.750Z,24.23
2019-03-27T22:47:30.070Z,27.77
2019-03-27T22:50:00.402Z,28.30
2019-03-27T22:52:30.698Z,24.47
2019-03-27T22:55:01.084Z,30.40
2019-03-27T22:57:31.398Z,26.93
2019-03-27T23:00:01.834Z,27.33
2019-03-27T23:02:32.180Z,24.93
2019-03-27T23:05:02.502Z,27.00
2019-03-27T23:07:32.801Z,24.33
2019-03-27T23:10:03.224Z,24.63
2019-03-27T23:12:33.498Z,29.00
2019-03-27T23:15:03.928Z,25.17
2019-03-27T23:17:34.206Z,30.27
2019-03-27T23:20:05.205Z,22.30
2019-03-27T23:22:35.510Z,24.70
2019-03-27T23:25:05.939Z,23.70
2019-03-27T23:27:36.226Z,23.43
2019-03-27T23:30:07.548Z,22.47
2019-03-27T23:32:37.918Z,24.27
2019-03-27T23:35:08.220Z,20.70
2019-03-27T23:37:38.519Z,26.07
2019-03-27T23:40:08.898Z,22.57
2019-03-27T23:42:39.224Z,19.00
2019-03-27T23:45:09.556Z,19.80
2019-03-27T23:47:39.862Z,20.30
2019-03-27T23:50:10.298Z,19.63
2019-03-27T23:52:40.622Z,17.97
2019-03-27T23:55:10.937Z,20.30
2019-03-27T23:57:41.234Z,20.63
